sensor_id;sensor_type;location;lat;lon;timestamp;P1;durP1;ratioP1;P2;durP2;ratioP2
55224;SDS011;41091;49.400;8.684;2022-10-16T00:02:04;10.88;;;0.95;;
55224;SDS011;41091;49.400;8.684;2022-10-16T00:04:29;2.92;;;0.57;;
55224;SDS011;41091;49.400;8.684;2022-10-16T00:06:57;0.93;;;0.80;;
55224;SDS011;41091;49.400;8.684;2022-10-16T00:09:22;3.08;;;0.65;;
55224;SDS011;41091;49.400;8.684;2022-10-16T00:11:48;0.85;;;0.85;;
55224;SDS011;41091;49.400;8.684;2022-10-16T00:14:13;1.35;;;1.23;;
55224;SDS011;41091;49.400;8.684;2022-10-16T00:16:40;1.02;;;1.00;;
55224;SDS011;41091;49.400;8.684;2022-10-16T00:19:05;3.40;;;0.93;;
55224;SDS011;41091;49.400;8.684;2022-10-16T00:21:31;0.63;;;0.60;;
55224;SDS011;41091;49.400;8.684;2022-10-16T00:23:58;5.97;;;0.60;;
55224;SDS011;41091;49.400;8.684;2022-10-16T00:26:32;3.03;;;0.50;;
55224;SDS011;41091;49.400;8.684;2022-10-16T00:28:58;12.75;;;0.80;;
55224;SDS011;41091;49.400;8.684;2022-10-16T00:31:24;1.38;;;0.73;;
55224;SDS011;41091;49.400;8.684;2022-10-16T00:33:50;0.73;;;0.45;;
55224;SDS011;41091;49.400;8.684;2022-10-16T00:36:16;0.88;;;0.60;;
55224;SDS011;41091;49.400;8.684;2022-10-16T00:38:45;2.40;;;0.60;;
55224;SDS011;41091;49.400;8.684;2022-10-16T00:41:12;2.13;;;0.88;;
55224;SDS011;41091;49.400;8.684;2022-10-16T00:43:48;8.07;;;0.80;;
55224;SDS011;41091;49.400;8.684;2022-10-16T00:46:22;7.93;;;0.70;;
55224;SDS011;41091;49.400;8.684;2022-10-16T00:51:35;8.93;;;0.93;;
55224;SDS011;41091;49.400;8.684;2022-10-16T00:54:06;1.05;;;0.50;;
55224;SDS011;41091;49.400;8.684;2022-10-16T00:56:34;0.70;;;0.70;;
55224;SDS011;41091;49.400;8.684;2022-10-16T00:58:59;1.65;;;0.88;;
55224;SDS011;41091;49.400;8.684;2022-10-16T01:01:27;3.75;;;0.73;;
55224;SDS011;41091;49.400;8.684;2022-10-16T01:03:55;1.42;;;0.77;;
55224;SDS011;41091;49.400;8.684;2022-10-16T01:08:57;3.83;;;0.70;;
55224;SDS011;41091;49.400;8.684;2022-10-16T01:11:30;9.85;;;0.95;;
55224;SDS011;41091;49.400;8.684;2022-10-16T01:14:00;1.17;;;0.60;;
55224;SDS011;41091;49.400;8.684;2022-10-16T01:16:34;5.55;;;0.90;;
55224;SDS011;41091;49.400;8.684;2022-10-16T01:19:14;1.15;;;0.70;;
55224;SDS011;41091;49.400;8.684;2022-10-16T01:21:46;1.00;;;0.50;;
55224;SDS011;41091;49.400;8.684;2022-10-16T01:29:49;1.48;;;0.70;;
55224;SDS011;41091;49.400;8.684;2022-10-16T01:35:10;8.13;;;0.98;;
55224;SDS011;41091;49.400;8.684;2022-10-16T01:38:24;3.30;;;0.65;;
55224;SDS011;41091;49.400;8.684;2022-10-16T01:40:25;2.63;;;0.98;;
55224;SDS011;41091;49.400;8.684;2022-10-16T01:43:03;6.95;;;0.88;;
55224;SDS011;41091;49.400;8.684;2022-10-16T01:45:31;1.13;;;1.00;;
55224;SDS011;41091;49.400;8.684;2022-10-16T01:47:56;12.52;;;1.02;;
55224;SDS011;41091;49.400;8.684;2022-10-16T01:50:22;3.80;;;0.80;;
55224;SDS011;41091;49.400;8.684;2022-10-16T01:52:49;7.43;;;0.90;;
55224;SDS011;41091;49.400;8.684;2022-10-16T01:55:17;2.60;;;0.80;;
55224;SDS011;41091;49.400;8.684;2022-10-16T01:57:48;4.03;;;0.77;;
55224;SDS011;41091;49.400;8.684;2022-10-16T02:00:15;1.55;;;0.80;;
55224;SDS011;41091;49.400;8.684;2022-10-16T02:02:42;0.80;;;0.80;;
55224;SDS011;41091;49.400;8.684;2022-10-16T02:07:41;2.95;;;0.90;;
55224;SDS011;41091;49.400;8.684;2022-10-16T02:10:07;2.05;;;0.90;;
55224;SDS011;41091;49.400;8.684;2022-10-16T02:12:33;1.08;;;1.08;;
55224;SDS011;41091;49.400;8.684;2022-10-16T02:15:01;5.20;;;0.70;;
55224;SDS011;41091;49.400;8.684;2022-10-16T02:17:30;2.47;;;0.73;;
55224;SDS011;41091;49.400;8.684;2022-10-16T02:19:55;1.70;;;1.00;;
55224;SDS011;41091;49.400;8.684;2022-10-16T02:22:26;1.58;;;0.85;;
55224;SDS011;41091;49.400;8.684;2022-10-16T02:24:57;0.70;;;0.65;;
55224;SDS011;41091;49.400;8.684;2022-10-16T02:27:26;2.80;;;1.60;;
55224;SDS011;41091;49.400;8.684;2022-10-16T02:29:56;0.95;;;0.80;;
55224;SDS011;41091;49.400;8.684;2022-10-16T02:32:27;0.82;;;0.60;;
55224;SDS011;41091;49.400;8.684;2022-10-16T02:34:55;7.25;;;0.82;;
55224;SDS011;41091;49.400;8.684;2022-10-16T02:37:21;7.43;;;0.93;;
55224;SDS011;41091;49.400;8.684;2022-10-16T02:39:49;1.83;;;0.73;;
55224;SDS011;41091;49.400;8.684;2022-10-16T02:42:17;2.80;;;0.65;;
55224;SDS011;41091;49.400;8.684;2022-10-16T02:44:43;1.33;;;1.13;;
55224;SDS011;41091;49.400;8.684;2022-10-16T02:47:09;2.35;;;0.77;;
55224;SDS011;41091;49.400;8.684;2022-10-16T02:49:36;5.55;;;1.08;;
55224;SDS011;41091;49.400;8.684;2022-10-16T02:52:02;2.92;;;0.98;;
55224;SDS011;41091;49.400;8.684;2022-10-16T02:54:30;3.22;;;1.35;;
55224;SDS011;41091;49.400;8.684;2022-10-16T02:56:57;5.18;;;0.73;;
55224;SDS011;41091;49.400;8.684;2022-10-16T02:59:23;4.78;;;0.85;;
55224;SDS011;41091;49.400;8.684;2022-10-16T03:01:50;4.60;;;1.98;;
55224;SDS011;41091;49.400;8.684;2022-10-16T03:04:15;1.65;;;0.88;;
55224;SDS011;41091;49.400;8.684;2022-10-16T03:06:43;2.95;;;0.70;;
55224;SDS011;41091;49.400;8.684;2022-10-16T03:09:08;0.88;;;0.82;;
55224;SDS011;41091;49.400;8.684;2022-10-16T03:11:34;6.88;;;1.10;;
55224;SDS011;41091;49.400;8.684;2022-10-16T03:13:59;0.52;;;0.52;;
55224;SDS011;41091;49.400;8.684;2022-10-16T03:16:25;1.08;;;0.63;;
55224;SDS011;41091;49.400;8.684;2022-10-16T03:18:52;4.05;;;1.10;;
55224;SDS011;41091;49.400;8.684;2022-10-16T03:21:18;2.45;;;0.70;;
55224;SDS011;41091;49.400;8.684;2022-10-16T03:23:43;2.90;;;0.95;;
55224;SDS011;41091;49.400;8.684;2022-10-16T03:26:08;1.98;;;0.90;;
55224;SDS011;41091;49.400;8.684;2022-10-16T03:28:34;2.63;;;0.82;;
55224;SDS011;41091;49.400;8.684;2022-10-16T03:30:59;2.08;;;0.75;;
55224;SDS011;41091;49.400;8.684;2022-10-16T03:33:24;3.72;;;0.70;;
55224;SDS011;41091;49.400;8.684;2022-10-16T03:35:52;12.38;;;0.98;;
55224;SDS011;41091;49.400;8.684;2022-10-16T03:38:19;2.13;;;0.90;;
55224;SDS011;41091;49.400;8.684;2022-10-16T03:40:44;5.78;;;1.35;;
55224;SDS011;41091;49.400;8.684;2022-10-16T03:43:12;9.73;;;1.50;;
55224;SDS011;41091;49.400;8.684;2022-10-16T03:45:37;2.60;;;0.93;;
55224;SDS011;41091;49.400;8.684;2022-10-16T03:48:07;3.97;;;0.68;;
55224;SDS011;41091;49.400;8.684;2022-10-16T03:50:35;7.10;;;0.75;;
55224;SDS011;41091;49.400;8.684;2022-10-16T03:53:03;3.92;;;0.70;;
55224;SDS011;41091;49.400;8.684;2022-10-16T03:55:28;1.30;;;0.60;;
55224;SDS011;41091;49.400;8.684;2022-10-16T03:57:54;12.70;;;0.80;;
55224;SDS011;41091;49.400;8.684;2022-10-16T04:00:21;0.68;;;0.68;;
55224;SDS011;41091;49.400;8.684;2022-10-16T04:02:47;3.63;;;0.82;;
55224;SDS011;41091;49.400;8.684;2022-10-16T04:05:12;8.95;;;1.30;;
55224;SDS011;41091;49.400;8.684;2022-10-16T04:07:40;2.60;;;1.08;;
55224;SDS011;41091;49.400;8.684;2022-10-16T04:10:05;1.60;;;0.80;;
55224;SDS011;41091;49.400;8.684;2022-10-16T04:12:31;0.70;;;0.70;;
55224;SDS011;41091;49.400;8.684;2022-10-16T04:14:56;7.70;;;1.10;;
55224;SDS011;41091;49.400;8.684;2022-10-16T04:17:21;3.05;;;0.93;;
55224;SDS011;41091;49.400;8.684;2022-10-16T04:19:47;1.17;;;0.80;;
55224;SDS011;41091;49.400;8.684;2022-10-16T04:22:12;1.45;;;0.90;;
55224;SDS011;41091;49.400;8.684;2022-10-16T04:24:40;1.63;;;0.80;;
55224;SDS011;41091;49.400;8.684;2022-10-16T04:27:05;2.88;;;0.90;;
55224;SDS011;41091;49.400;8.684;2022-10-16T04:29:30;2.25;;;0.80;;
55224;SDS011;41091;49.400;8.684;2022-10-16T04:31:58;2.45;;;0.60;;
55224;SDS011;41091;49.400;8.684;2022-10-16T04:34:24;0.75;;;0.60;;
55224;SDS011;41091;49.400;8.684;2022-10-16T04:36:49;1.45;;;0.57;;
55224;SDS011;41091;49.400;8.684;2022-10-16T04:39:15;1.30;;;0.68;;
55224;SDS011;41091;49.400;8.684;2022-10-16T04:41:40;0.80;;;0.68;;
55224;SDS011;41091;49.400;8.684;2022-10-16T04:44:06;1.20;;;0.90;;
55224;SDS011;41091;49.400;8.684;2022-10-16T04:46:31;3.60;;;1.00;;
55224;SDS011;41091;49.400;8.684;2022-10-16T04:48:57;2.70;;;0.60;;
55224;SDS011;41091;49.400;8.684;2022-10-16T04:51:22;1.85;;;0.68;;
55224;SDS011;41091;49.400;8.684;2022-10-16T04:53:48;3.30;;;1.00;;
55224;SDS011;41091;49.400;8.684;2022-10-16T04:56:13;3.10;;;0.65;;
55224;SDS011;41091;49.400;8.684;2022-10-16T04:58:39;0.80;;;0.60;;
55224;SDS011;41091;49.400;8.684;2022-10-16T05:01:07;2.97;;;0.70;;
55224;SDS011;41091;49.400;8.684;2022-10-16T05:03:32;1.83;;;0.90;;
55224;SDS011;41091;49.400;8.684;2022-10-16T05:05:58;4.60;;;0.60;;
55224;SDS011;41091;49.400;8.684;2022-10-16T05:08:23;2.50;;;0.60;;
55224;SDS011;41091;49.400;8.684;2022-10-16T05:10:51;1.35;;;0.60;;
55224;SDS011;41091;49.400;8.684;2022-10-16T05:13:16;3.38;;;0.60;;
55224;SDS011;41091;49.400;8.684;2022-10-16T05:15:41;0.52;;;0.52;;
55224;SDS011;41091;49.400;8.684;2022-10-16T05:18:07;3.65;;;0.80;;
55224;SDS011;41091;49.400;8.684;2022-10-16T05:20:33;1.02;;;0.52;;
55224;SDS011;41091;49.400;8.684;2022-10-16T05:22:59;1.17;;;0.63;;
55224;SDS011;41091;49.400;8.684;2022-10-16T05:25:24;0.68;;;0.40;;
55224;SDS011;41091;49.400;8.684;2022-10-16T05:27:50;9.38;;;0.85;;
55224;SDS011;41091;49.400;8.684;2022-10-16T05:30:18;3.47;;;0.63;;
55224;SDS011;41091;49.400;8.684;2022-10-16T05:32:49;1.30;;;0.77;;
55224;SDS011;41091;49.400;8.684;2022-10-16T05:35:15;0.63;;;0.63;;
55224;SDS011;41091;49.400;8.684;2022-10-16T05:37:41;2.72;;;0.63;;
55224;SDS011;41091;49.400;8.684;2022-10-16T05:40:07;4.38;;;0.45;;
55224;SDS011;41091;49.400;8.684;2022-10-16T05:42:33;1.60;;;0.80;;
55224;SDS011;41091;49.400;8.684;2022-10-16T05:44:58;2.50;;;0.50;;
55224;SDS011;41091;49.400;8.684;2022-10-16T05:47:24;3.28;;;0.73;;
55224;SDS011;41091;49.400;8.684;2022-10-16T05:49:49;0.93;;;0.38;;
55224;SDS011;41091;49.400;8.684;2022-10-16T05:52:15;1.00;;;0.73;;
55224;SDS011;41091;49.400;8.684;2022-10-16T05:54:42;4.43;;;0.75;;
55224;SDS011;41091;49.400;8.684;2022-10-16T05:57:08;4.60;;;1.02;;
55224;SDS011;41091;49.400;8.684;2022-10-16T05:59:33;8.13;;;0.70;;
55224;SDS011;41091;49.400;8.684;2022-10-16T06:01:59;1.02;;;0.65;;
55224;SDS011;41091;49.400;8.684;2022-10-16T06:04:27;2.25;;;0.95;;
55224;SDS011;41091;49.400;8.684;2022-10-16T06:06:57;0.63;;;0.63;;
55224;SDS011;41091;49.400;8.684;2022-10-16T06:11:50;5.87;;;0.60;;
55224;SDS011;41091;49.400;8.684;2022-10-16T06:14:18;0.70;;;0.57;;
55224;SDS011;41091;49.400;8.684;2022-10-16T06:16:43;3.70;;;0.93;;
55224;SDS011;41091;49.400;8.684;2022-10-16T06:19:08;6.43;;;0.63;;
55224;SDS011;41091;49.400;8.684;2022-10-16T06:21:34;3.67;;;0.80;;
55224;SDS011;41091;49.400;8.684;2022-10-16T06:23:59;0.40;;;0.40;;
55224;SDS011;41091;49.400;8.684;2022-10-16T06:26:26;0.85;;;0.60;;
55224;SDS011;41091;49.400;8.684;2022-10-16T06:28:53;1.27;;;0.57;;
55224;SDS011;41091;49.400;8.684;2022-10-16T06:31:20;0.80;;;0.80;;
55224;SDS011;41091;49.400;8.684;2022-10-16T06:33:49;2.72;;;0.70;;
55224;SDS011;41091;49.400;8.684;2022-10-16T06:36:16;4.95;;;0.60;;
55224;SDS011;41091;49.400;8.684;2022-10-16T06:38:42;0.68;;;0.68;;
55224;SDS011;41091;49.400;8.684;2022-10-16T06:41:14;1.80;;;0.60;;
55224;SDS011;41091;49.400;8.684;2022-10-16T06:43:41;1.40;;;0.55;;
55224;SDS011;41091;49.400;8.684;2022-10-16T06:46:08;0.52;;;0.52;;
55224;SDS011;41091;49.400;8.684;2022-10-16T06:48:37;1.73;;;0.65;;
55224;SDS011;41091;49.400;8.684;2022-10-16T06:51:04;0.70;;;0.70;;
55224;SDS011;41091;49.400;8.684;2022-10-16T06:53:34;3.55;;;0.68;;
55224;SDS011;41091;49.400;8.684;2022-10-16T06:56:10;1.23;;;0.65;;
55224;SDS011;41091;49.400;8.684;2022-10-16T06:58:39;0.60;;;0.60;;
55224;SDS011;41091;49.400;8.684;2022-10-16T07:01:07;0.68;;;0.55;;
55224;SDS011;41091;49.400;8.684;2022-10-16T07:03:36;1.25;;;0.45;;
55224;SDS011;41091;49.400;8.684;2022-10-16T07:06:03;4.50;;;0.70;;
55224;SDS011;41091;49.400;8.684;2022-10-16T07:08:35;0.90;;;0.73;;
55224;SDS011;41091;49.400;8.684;2022-10-16T07:11:05;1.13;;;0.57;;
55224;SDS011;41091;49.400;8.684;2022-10-16T07:13:33;2.83;;;0.55;;
55224;SDS011;41091;49.400;8.684;2022-10-16T07:16:06;1.05;;;0.45;;
55224;SDS011;41091;49.400;8.684;2022-10-16T07:18:36;2.47;;;0.70;;
55224;SDS011;41091;49.400;8.684;2022-10-16T07:23:33;2.92;;;1.00;;
55224;SDS011;41091;49.400;8.684;2022-10-16T07:25:59;3.22;;;0.80;;
55224;SDS011;41091;49.400;8.684;2022-10-16T07:28:27;4.13;;;1.45;;
55224;SDS011;41091;49.400;8.684;2022-10-16T07:30:53;3.55;;;1.35;;
55224;SDS011;41091;49.400;8.684;2022-10-16T07:33:18;2.03;;;0.60;;
55224;SDS011;41091;49.400;8.684;2022-10-16T07:35:53;2.90;;;0.75;;
55224;SDS011;41091;49.400;8.684;2022-10-16T07:38:21;3.45;;;1.58;;
55224;SDS011;41091;49.400;8.684;2022-10-16T07:41:02;1.52;;;1.10;;
55224;SDS011;41091;49.400;8.684;2022-10-16T07:43:29;5.15;;;2.33;;
55224;SDS011;41091;49.400;8.684;2022-10-16T07:46:00;1.83;;;0.98;;
55224;SDS011;41091;49.400;8.684;2022-10-16T07:48:29;3.05;;;0.75;;
55224;SDS011;41091;49.400;8.684;2022-10-16T07:51:03;1.25;;;1.00;;
55224;SDS011;41091;49.400;8.684;2022-10-16T07:53:30;2.45;;;0.98;;
55224;SDS011;41091;49.400;8.684;2022-10-16T07:55:57;0.70;;;0.70;;
55224;SDS011;41091;49.400;8.684;2022-10-16T07:58:26;0.80;;;0.80;;
55224;SDS011;41091;49.400;8.684;2022-10-16T08:00:52;0.77;;;0.63;;
55224;SDS011;41091;49.400;8.684;2022-10-16T08:03:22;1.15;;;1.02;;
55224;SDS011;41091;49.400;8.684;2022-10-16T08:05:49;3.95;;;0.70;;
55224;SDS011;41091;49.400;8.684;2022-10-16T08:08:15;3.45;;;0.77;;
55224;SDS011;41091;49.400;8.684;2022-10-16T08:10:41;0.50;;;0.50;;
55224;SDS011;41091;49.400;8.684;2022-10-16T08:13:07;9.32;;;0.60;;
55224;SDS011;41091;49.400;8.684;2022-10-16T08:15:32;6.63;;;0.75;;
55224;SDS011;41091;49.400;8.684;2022-10-16T08:17:59;0.68;;;0.68;;
55224;SDS011;41091;49.400;8.684;2022-10-16T08:20:29;2.05;;;0.73;;
55224;SDS011;41091;49.400;8.684;2022-10-16T08:22:55;0.63;;;0.60;;
55224;SDS011;41091;49.400;8.684;2022-10-16T08:25:23;2.95;;;1.20;;
55224;SDS011;41091;49.400;8.684;2022-10-16T08:27:51;2.50;;;0.88;;
55224;SDS011;41091;49.400;8.684;2022-10-16T08:30:17;4.20;;;0.82;;
55224;SDS011;41091;49.400;8.684;2022-10-16T08:32:47;3.22;;;0.77;;
55224;SDS011;41091;49.400;8.684;2022-10-16T08:35:13;1.90;;;0.70;;
55224;SDS011;41091;49.400;8.684;2022-10-16T08:37:39;3.80;;;0.40;;
55224;SDS011;41091;49.400;8.684;2022-10-16T08:40:07;1.45;;;0.88;;
55224;SDS011;41091;49.400;8.684;2022-10-16T08:42:50;2.97;;;0.63;;
55224;SDS011;41091;49.400;8.684;2022-10-16T08:51:03;3.25;;;0.40;;
55224;SDS011;41091;49.400;8.684;2022-10-16T08:53:43;0.82;;;0.43;;
55224;SDS011;41091;49.400;8.684;2022-10-16T08:56:14;2.90;;;1.02;;
55224;SDS011;41091;49.400;8.684;2022-10-16T08:58:39;0.90;;;0.40;;
55224;SDS011;41091;49.400;8.684;2022-10-16T09:12:04;4.97;;;1.20;;
55224;SDS011;41091;49.400;8.684;2022-10-16T09:23:08;4.55;;;0.73;;
55224;SDS011;41091;49.400;8.684;2022-10-16T09:25:38;2.70;;;0.60;;
55224;SDS011;41091;49.400;8.684;2022-10-16T09:28:07;7.25;;;1.10;;
55224;SDS011;41091;49.400;8.684;2022-10-16T09:30:35;0.90;;;0.52;;
55224;SDS011;41091;49.400;8.684;2022-10-16T09:33:01;5.03;;;0.65;;
55224;SDS011;41091;49.400;8.684;2022-10-16T09:35:49;10.15;;;2.08;;
55224;SDS011;41091;49.400;8.684;2022-10-16T09:38:21;3.40;;;0.68;;
55224;SDS011;41091;49.400;8.684;2022-10-16T09:40:54;1.17;;;0.60;;
55224;SDS011;41091;49.400;8.684;2022-10-16T09:46:08;5.10;;;0.95;;
55224;SDS011;41091;49.400;8.684;2022-10-16T09:51:18;2.45;;;1.15;;
55224;SDS011;41091;49.400;8.684;2022-10-16T09:53:48;1.08;;;1.00;;
55224;SDS011;41091;49.400;8.684;2022-10-16T09:56:27;4.65;;;0.90;;
55224;SDS011;41091;49.400;8.684;2022-10-16T09:58:55;2.67;;;0.82;;
55224;SDS011;41091;49.400;8.684;2022-10-16T10:01:26;0.63;;;0.63;;
55224;SDS011;41091;49.400;8.684;2022-10-16T10:03:56;1.63;;;0.63;;
55224;SDS011;41091;49.400;8.684;2022-10-16T10:08:59;1.75;;;0.40;;
55224;SDS011;41091;49.400;8.684;2022-10-16T10:11:37;0.75;;;0.70;;
55224;SDS011;41091;49.400;8.684;2022-10-16T10:16:48;3.33;;;0.60;;
55224;SDS011;41091;49.400;8.684;2022-10-16T10:19:14;3.50;;;0.80;;
55224;SDS011;41091;49.400;8.684;2022-10-16T10:21:45;5.65;;;0.80;;
55224;SDS011;41091;49.400;8.684;2022-10-16T10:24:11;5.90;;;0.80;;
55224;SDS011;41091;49.400;8.684;2022-10-16T10:26:54;3.25;;;0.75;;
55224;SDS011;41091;49.400;8.684;2022-10-16T10:29:39;15.07;;;2.88;;
55224;SDS011;41091;49.400;8.684;2022-10-16T10:32:14;4.82;;;0.70;;
55224;SDS011;41091;49.400;8.684;2022-10-16T10:34:52;3.50;;;0.80;;
55224;SDS011;41091;49.400;8.684;2022-10-16T10:40:07;3.35;;;0.65;;
55224;SDS011;41091;49.400;8.684;2022-10-16T10:48:23;8.80;;;1.47;;
55224;SDS011;41091;49.400;8.684;2022-10-16T10:50:54;3.47;;;0.60;;
55224;SDS011;41091;49.400;8.684;2022-10-16T10:56:06;1.67;;;0.57;;
55224;SDS011;41091;49.400;8.684;2022-10-16T10:58:56;2.45;;;0.70;;
55224;SDS011;41091;49.400;8.684;2022-10-16T11:01:27;3.97;;;0.70;;
55224;SDS011;41091;49.400;8.684;2022-10-16T11:04:23;1.33;;;0.70;;
55224;SDS011;41091;49.400;8.684;2022-10-16T11:06:59;3.38;;;1.20;;
55224;SDS011;41091;49.400;8.684;2022-10-16T11:09:41;7.65;;;0.93;;
55224;SDS011;41091;49.400;8.684;2022-10-16T11:12:12;1.95;;;0.65;;
55224;SDS011;41091;49.400;8.684;2022-10-16T11:17:19;0.45;;;0.45;;
55224;SDS011;41091;49.400;8.684;2022-10-16T11:22:38;2.08;;;0.68;;
55224;SDS011;41091;49.400;8.684;2022-10-16T11:30:33;0.50;;;0.50;;
55224;SDS011;41091;49.400;8.684;2022-10-16T11:41:10;0.82;;;0.60;;
55224;SDS011;41091;49.400;8.684;2022-10-16T11:43:41;1.30;;;0.77;;
55224;SDS011;41091;49.400;8.684;2022-10-16T11:46:19;0.95;;;0.57;;
55224;SDS011;41091;49.400;8.684;2022-10-16T11:54:20;0.70;;;0.60;;
55224;SDS011;41091;49.400;8.684;2022-10-16T11:56:48;1.70;;;0.80;;
55224;SDS011;41091;49.400;8.684;2022-10-16T11:59:28;3.85;;;0.60;;
55224;SDS011;41091;49.400;8.684;2022-10-16T12:02:02;4.60;;;0.98;;
55224;SDS011;41091;49.400;8.684;2022-10-16T12:07:35;6.65;;;1.08;;
55224;SDS011;41091;49.400;8.684;2022-10-16T12:10:24;9.93;;;0.98;;
55224;SDS011;41091;49.400;8.684;2022-10-16T12:12:54;1.83;;;0.60;;
55224;SDS011;41091;49.400;8.684;2022-10-16T12:15:21;0.98;;;0.50;;
55224;SDS011;41091;49.400;8.684;2022-10-16T12:17:50;6.05;;;0.70;;
55224;SDS011;41091;49.400;8.684;2022-10-16T12:20:20;1.30;;;0.98;;
55224;SDS011;41091;49.400;8.684;2022-10-16T12:27:56;1.40;;;0.65;;
55224;SDS011;41091;49.400;8.684;2022-10-16T12:30:35;2.38;;;0.73;;
55224;SDS011;41091;49.400;8.684;2022-10-16T12:35:45;2.17;;;0.70;;
55224;SDS011;41091;49.400;8.684;2022-10-16T12:38:15;1.10;;;1.00;;
55224;SDS011;41091;49.400;8.684;2022-10-16T12:40:42;5.95;;;0.77;;
55224;SDS011;41091;49.400;8.684;2022-10-16T12:45:58;1.08;;;0.90;;
55224;SDS011;41091;49.400;8.684;2022-10-16T12:48:46;1.10;;;1.08;;
55224;SDS011;41091;49.400;8.684;2022-10-16T12:54:00;2.67;;;0.82;;
55224;SDS011;41091;49.400;8.684;2022-10-16T13:12:40;4.28;;;1.00;;
55224;SDS011;41091;49.400;8.684;2022-10-16T13:20:56;2.05;;;0.65;;
55224;SDS011;41091;49.400;8.684;2022-10-16T13:29:02;6.43;;;0.93;;
55224;SDS011;41091;49.400;8.684;2022-10-16T13:31:28;6.40;;;0.98;;
55224;SDS011;41091;49.400;8.684;2022-10-16T13:33:57;0.68;;;0.68;;
55224;SDS011;41091;49.400;8.684;2022-10-16T13:36:34;1.00;;;0.60;;
55224;SDS011;41091;49.400;8.684;2022-10-16T13:39:20;6.72;;;1.00;;
55224;SDS011;41091;49.400;8.684;2022-10-16T13:41:58;0.98;;;0.98;;
55224;SDS011;41091;49.400;8.684;2022-10-16T13:44:27;7.72;;;1.23;;
55224;SDS011;41091;49.400;8.684;2022-10-16T13:47:01;4.85;;;1.10;;
55224;SDS011;41091;49.400;8.684;2022-10-16T13:49:27;1.33;;;1.17;;
55224;SDS011;41091;49.400;8.684;2022-10-16T13:51:55;1.20;;;0.82;;
55224;SDS011;41091;49.400;8.684;2022-10-16T13:54:22;1.38;;;0.80;;
55224;SDS011;41091;49.400;8.684;2022-10-16T13:56:48;3.83;;;1.48;;
55224;SDS011;41091;49.400;8.684;2022-10-16T13:59:27;0.90;;;0.90;;
55224;SDS011;41091;49.400;8.684;2022-10-16T14:01:58;1.90;;;1.02;;
55224;SDS011;41091;49.400;8.684;2022-10-16T14:04:24;4.10;;;0.98;;
55224;SDS011;41091;49.400;8.684;2022-10-16T14:06:53;2.53;;;0.88;;
55224;SDS011;41091;49.400;8.684;2022-10-16T14:12:00;6.32;;;1.33;;
55224;SDS011;41091;49.400;8.684;2022-10-16T14:14:34;2.50;;;1.23;;
55224;SDS011;41091;49.400;8.684;2022-10-16T14:17:04;1.48;;;0.80;;
55224;SDS011;41091;49.400;8.684;2022-10-16T14:19:30;1.65;;;0.90;;
55224;SDS011;41091;49.400;8.684;2022-10-16T14:21:58;10.45;;;0.90;;
55224;SDS011;41091;49.400;8.684;2022-10-16T14:26:57;2.88;;;1.05;;
55224;SDS011;41091;49.400;8.684;2022-10-16T14:29:26;4.15;;;0.98;;
55224;SDS011;41091;49.400;8.684;2022-10-16T14:31:56;3.53;;;0.82;;
55224;SDS011;41091;49.400;8.684;2022-10-16T14:34:35;1.25;;;0.73;;
55224;SDS011;41091;49.400;8.684;2022-10-16T14:37:06;2.70;;;0.90;;
55224;SDS011;41091;49.400;8.684;2022-10-16T14:39:34;4.88;;;0.80;;
55224;SDS011;41091;49.400;8.684;2022-10-16T14:42:02;2.42;;;1.00;;
55224;SDS011;41091;49.400;8.684;2022-10-16T14:44:29;7.28;;;0.95;;
55224;SDS011;41091;49.400;8.684;2022-10-16T14:46:56;4.63;;;0.90;;
55224;SDS011;41091;49.400;8.684;2022-10-16T14:49:22;3.75;;;1.23;;
55224;SDS011;41091;49.400;8.684;2022-10-16T14:51:48;11.40;;;1.13;;
55224;SDS011;41091;49.400;8.684;2022-10-16T14:54:15;1.08;;;1.02;;
55224;SDS011;41091;49.400;8.684;2022-10-16T14:59:19;8.02;;;1.35;;
55224;SDS011;41091;49.400;8.684;2022-10-16T15:01:45;5.65;;;1.20;;
55224;SDS011;41091;49.400;8.684;2022-10-16T15:04:11;7.13;;;1.00;;
55224;SDS011;41091;49.400;8.684;2022-10-16T15:06:37;1.27;;;0.90;;
55224;SDS011;41091;49.400;8.684;2022-10-16T15:09:02;0.80;;;0.65;;
55224;SDS011;41091;49.400;8.684;2022-10-16T15:11:28;2.28;;;1.00;;
55224;SDS011;41091;49.400;8.684;2022-10-16T15:13:54;1.15;;;1.15;;
55224;SDS011;41091;49.400;8.684;2022-10-16T15:16:21;5.40;;;0.95;;
55224;SDS011;41091;49.400;8.684;2022-10-16T15:18:47;1.10;;;1.00;;
55224;SDS011;41091;49.400;8.684;2022-10-16T15:21:21;5.07;;;1.00;;
55224;SDS011;41091;49.400;8.684;2022-10-16T15:23:49;2.83;;;1.10;;
55224;SDS011;41091;49.400;8.684;2022-10-16T15:26:15;2.28;;;1.10;;
55224;SDS011;41091;49.400;8.684;2022-10-16T15:28:41;0.98;;;0.82;;
55224;SDS011;41091;49.400;8.684;2022-10-16T15:31:06;5.68;;;1.00;;
55224;SDS011;41091;49.400;8.684;2022-10-16T15:33:31;8.20;;;1.23;;
55224;SDS011;41091;49.400;8.684;2022-10-16T15:35:59;9.07;;;1.10;;
55224;SDS011;41091;49.400;8.684;2022-10-16T15:38:25;5.03;;;1.20;;
55224;SDS011;41091;49.400;8.684;2022-10-16T15:40:53;5.07;;;0.80;;
55224;SDS011;41091;49.400;8.684;2022-10-16T15:43:22;1.15;;;1.00;;
55224;SDS011;41091;49.400;8.684;2022-10-16T15:45:52;3.05;;;1.10;;
55224;SDS011;41091;49.400;8.684;2022-10-16T15:48:24;9.35;;;1.02;;
55224;SDS011;41091;49.400;8.684;2022-10-16T15:50:49;12.00;;;1.80;;
55224;SDS011;41091;49.400;8.684;2022-10-16T15:53:14;1.02;;;0.90;;
55224;SDS011;41091;49.400;8.684;2022-10-16T15:55:40;9.38;;;1.85;;
55224;SDS011;41091;49.400;8.684;2022-10-16T15:58:05;5.97;;;1.90;;
55224;SDS011;41091;49.400;8.684;2022-10-16T16:00:30;2.00;;;1.63;;
55224;SDS011;41091;49.400;8.684;2022-10-16T16:02:56;6.18;;;2.00;;
55224;SDS011;41091;49.400;8.684;2022-10-16T16:05:22;6.18;;;2.10;;
55224;SDS011;41091;49.400;8.684;2022-10-16T16:07:50;5.72;;;1.98;;
55224;SDS011;41091;49.400;8.684;2022-10-16T16:10:15;5.72;;;2.60;;
55224;SDS011;41091;49.400;8.684;2022-10-16T16:12:41;5.03;;;2.10;;
55224;SDS011;41091;49.400;8.684;2022-10-16T16:15:07;6.75;;;2.13;;
55224;SDS011;41091;49.400;8.684;2022-10-16T16:17:33;3.28;;;1.60;;
55224;SDS011;41091;49.400;8.684;2022-10-16T16:19:59;9.00;;;1.77;;
55224;SDS011;41091;49.400;8.684;2022-10-16T16:22:24;5.80;;;1.48;;
55224;SDS011;41091;49.400;8.684;2022-10-16T16:24:50;11.07;;;2.00;;
55224;SDS011;41091;49.400;8.684;2022-10-16T16:27:15;7.07;;;1.65;;
55224;SDS011;41091;49.400;8.684;2022-10-16T16:29:43;10.07;;;1.60;;
55224;SDS011;41091;49.400;8.684;2022-10-16T16:32:10;6.40;;;2.22;;
55224;SDS011;41091;49.400;8.684;2022-10-16T16:34:35;14.68;;;3.40;;
55224;SDS011;41091;49.400;8.684;2022-10-16T16:37:03;8.20;;;1.92;;
55224;SDS011;41091;49.400;8.684;2022-10-16T16:39:28;4.88;;;1.80;;
55224;SDS011;41091;49.400;8.684;2022-10-16T16:41:55;6.25;;;2.03;;
55224;SDS011;41091;49.400;8.684;2022-10-16T16:44:21;17.15;;;2.63;;
55224;SDS011;41091;49.400;8.684;2022-10-16T16:46:47;7.78;;;2.50;;
55224;SDS011;41091;49.400;8.684;2022-10-16T16:49:12;14.65;;;2.33;;
55224;SDS011;41091;49.400;8.684;2022-10-16T16:51:38;3.05;;;1.80;;
55224;SDS011;41091;49.400;8.684;2022-10-16T16:54:04;9.05;;;1.73;;
55224;SDS011;41091;49.400;8.684;2022-10-16T16:56:30;10.40;;;3.33;;
55224;SDS011;41091;49.400;8.684;2022-10-16T16:58:57;9.60;;;1.80;;
55224;SDS011;41091;49.400;8.684;2022-10-16T17:01:24;8.27;;;1.60;;
55224;SDS011;41091;49.400;8.684;2022-10-16T17:03:54;2.63;;;1.48;;
55224;SDS011;41091;49.400;8.684;2022-10-16T17:06:21;7.55;;;1.40;;
55224;SDS011;41091;49.400;8.684;2022-10-16T17:08:48;1.35;;;1.02;;
55224;SDS011;41091;49.400;8.684;2022-10-16T17:11:14;3.75;;;1.42;;
55224;SDS011;41091;49.400;8.684;2022-10-16T17:13:42;3.58;;;1.13;;
55224;SDS011;41091;49.400;8.684;2022-10-16T17:16:09;3.90;;;1.13;;
55224;SDS011;41091;49.400;8.684;2022-10-16T17:18:35;5.03;;;1.13;;
55224;SDS011;41091;49.400;8.684;2022-10-16T17:21:02;2.30;;;0.90;;